Patterson, Virginia
Current Conditions -  °F | °C
As of 1:35 AM on Saturday 20 Dec 2014 (Local Time) from KJFZ Reporting Station
Clear Clear  
Wind Chill: 28°   Ceiling: Unl
Heat Index: 28°   Visibility: 10mi
Dew Point: 22°   Wind: 3mph
Humidity: 81%   Direction: 30°NNE
Pressure: 30.12"   Gusts: NA
Location:  37.2148°N, 81.9825°W
Report Text: KJFZ 200635Z AUTO 03003KT 10SM CLR M02/M05 A3012 RMK AO2 T10251054
Loading
Personal Weather Stations






























Interactive Weather Map New forecast layout! Learn more

10-Day Weather Forecast

Advertisements
Track Severe Weather on mobile